Time;durP1;ratioP1;P1;durP2;ratioP2;P2;SDS_P1;SDS_P2;PMS_P1;PMS_P2;Temp;Humidity;BMP_temperature;BMP_pressure;BME280_temperature;BME280_humidity;BME280_pressure;Samples;Min_cycle;Max_cycle;Signal;HPM_P1;HPM_P2
2023/12/02 00:00:15;;;;;;;15.20;8.90;;;1.40;85.70;;;;;;4993789;28;20109;-73
2023/12/02 00:02:41;;;;;;;11.73;7.60;;;1.30;85.80;;;;;;4993708;28;20030;-75
2023/12/02 00:05:08;;;;;;;11.60;8.02;;;1.40;85.70;;;;;;4993506;28;20033;-75
2023/12/02 00:07:33;;;;;;;10.25;7.03;;;1.40;85.90;;;;;;4993596;28;20035;-75
2023/12/02 00:09:59;;;;;;;10.35;6.70;;;1.40;85.60;;;;;;4993685;28;20138;-75
2023/12/02 00:12:24;;;;;;;10.98;6.95;;;1.50;85.80;;;;;;4993409;28;20418;-76
2023/12/02 00:14:50;;;;;;;9.68;7.50;;;1.50;85.60;;;;;;4993292;28;20577;-76
2023/12/02 00:17:16;;;;;;;8.35;6.95;;;1.40;85.10;;;;;;4992512;28;20061;-77
2023/12/02 00:19:42;;;;;;;8.60;7.55;;;1.40;84.70;;;;;;4992625;28;20135;-76
2023/12/02 00:22:08;;;;;;;8.25;6.55;;;1.30;84.90;;;;;;4991921;28;20483;-75
2023/12/02 00:24:33;;;;;;;8.50;7.07;;;1.30;85.10;;;;;;4993211;28;20113;-75
2023/12/02 00:26:59;;;;;;;9.45;7.65;;;1.30;85.20;;;;;;4993502;28;20146;-74
2023/12/02 00:29:24;;;;;;;10.65;7.80;;;1.40;85.20;;;;;;4993532;28;20026;-75
2023/12/02 00:31:50;;;;;;;10.15;7.95;;;1.30;85.20;;;;;;4993334;28;20116;-76
2023/12/02 00:34:16;;;;;;;9.57;7.82;;;1.40;85.20;;;;;;4994762;28;20542;-77
2023/12/02 00:36:46;;;;;;;8.95;7.93;;;1.30;85.00;;;;;;4995444;28;20438;-76
2023/12/02 00:39:11;;;;;;;10.60;8.88;;;1.20;84.90;;;;;;4992987;28;20027;-74
2023/12/02 00:41:37;;;;;;;9.68;7.88;;;1.20;85.10;;;;;;4975898;28;20402;-74
2023/12/02 00:44:02;;;;;;;10.50;7.47;;;1.30;85.00;;;;;;4993079;28;20109;-75
2023/12/02 00:46:28;;;;;;;9.85;7.78;;;1.20;85.10;;;;;;4993122;28;20396;-75
2023/12/02 00:48:53;;;;;;;10.48;8.13;;;1.20;85.10;;;;;;4993137;28;20416;-75
2023/12/02 00:51:19;;;;;;;11.90;8.80;;;1.20;85.10;;;;;;4992918;28;20107;-75
2023/12/02 00:53:44;;;;;;;12.93;9.52;;;1.20;84.90;;;;;;4993445;28;20029;-76
2023/12/02 00:56:10;;;;;;;13.35;9.27;;;1.20;85.10;;;;;;4993143;28;20056;-75
2023/12/02 00:58:36;;;;;;;12.43;8.90;;;1.20;85.10;;;;;;4993076;28;20023;-74
2023/12/02 01:01:01;;;;;;;14.15;9.70;;;1.20;85.20;;;;;;4991718;28;20037;-75
2023/12/02 01:03:27;;;;;;;12.35;9.95;;;1.20;85.10;;;;;;4992467;28;20459;-74
2023/12/02 01:05:52;;;;;;;13.88;10.65;;;1.30;85.20;;;;;;4992370;28;20034;-75
2023/12/02 01:08:18;;;;;;;14.45;9.95;;;1.20;85.00;;;;;;4992402;28;20485;-75
2023/12/02 01:10:44;;;;;;;16.67;10.95;;;1.30;85.10;;;;;;4992735;28;20038;-74
2023/12/02 01:13:09;;;;;;;17.35;12.23;;;1.30;85.00;;;;;;4992632;28;20474;-75
2023/12/02 01:15:35;;;;;;;17.25;11.50;;;1.30;84.90;;;;;;4992739;28;20050;-77
2023/12/02 01:18:00;;;;;;;19.60;12.13;;;1.20;85.00;;;;;;4992687;28;20402;-75
2023/12/02 01:20:26;;;;;;;18.50;11.80;;;1.20;85.20;;;;;;4992682;28;20053;-76
2023/12/02 01:22:51;;;;;;;15.75;10.68;;;1.20;85.30;;;;;;4992671;28;20101;-75
2023/12/02 01:25:17;;;;;;;20.27;12.30;;;1.20;85.30;;;;;;4992799;28;20121;-76
2023/12/02 01:27:42;;;;;;;17.80;10.23;;;1.30;85.20;;;;;;4975475;28;20030;-76
2023/12/02 01:30:08;;;;;;;19.17;11.43;;;1.30;85.20;;;;;;4992820;28;20105;-75
2023/12/02 01:32:34;;;;;;;20.50;11.70;;;1.20;84.80;;;;;;4995285;28;20483;-76
2023/12/02 01:34:59;;;;;;;19.80;11.95;;;1.20;85.10;;;;;;4996219;28;20022;-77
2023/12/02 01:37:25;;;;;;;21.40;12.73;;;1.10;85.40;;;;;;4995088;28;20482;-77
2023/12/02 01:39:50;;;;;;;23.05;12.43;;;1.20;85.40;;;;;;4978462;28;20034;-76
2023/12/02 01:42:16;;;;;;;23.83;15.25;;;1.20;85.40;;;;;;4995381;28;20026;-76
2023/12/02 01:44:41;;;;;;;22.35;14.60;;;1.20;85.10;;;;;;4994299;28;20034;-75
2023/12/02 01:47:07;;;;;;;23.08;15.35;;;1.00;85.30;;;;;;4995979;28;20035;-75
2023/12/02 01:49:33;;;;;;;23.27;15.23;;;0.90;85.60;;;;;;4978169;28;20077;-75
2023/12/02 01:51:59;;;;;;;24.10;15.13;;;0.80;86.00;;;;;;4995731;28;20029;-76
2023/12/02 01:54:25;;;;;;;25.98;15.18;;;0.80;86.20;;;;;;4995926;28;20062;-76
2023/12/02 01:56:50;;;;;;;24.67;15.82;;;0.80;86.40;;;;;;4995800;28;20033;-76
2023/12/02 01:59:18;;;;;;;25.48;14.95;;;0.70;86.60;;;;;;4996014;28;20501;-77
2023/12/02 02:01:43;;;;;;;25.08;13.63;;;0.60;86.80;;;;;;4995778;28;20070;-78
2023/12/02 02:04:09;;;;;;;25.25;14.63;;;0.50;87.30;;;;;;4995936;28;20030;-78
2023/12/02 02:06:34;;;;;;;22.33;13.38;;;0.50;87.40;;;;;;4978301;28;20073;-77
2023/12/02 02:09:00;;;;;;;25.60;15.63;;;0.50;87.60;;;;;;4995381;28;20072;-77
2023/12/02 02:11:26;;;;;;;26.23;16.80;;;0.50;87.50;;;;;;4995389;28;20534;-78
2023/12/02 02:13:51;;;;;;;23.98;15.25;;;0.50;87.50;;;;;;4995293;28;20043;-76
2023/12/02 02:16:17;;;;;;;26.02;14.65;;;0.50;87.30;;;;;;4995612;28;20054;-75
2023/12/02 02:18:42;;;;;;;21.60;12.52;;;0.50;87.40;;;;;;4994829;28;20025;-76
2023/12/02 02:21:08;;;;;;;22.85;13.30;;;0.50;87.40;;;;;;4994847;28;20026;-76
2023/12/02 02:23:33;;;;;;;23.85;13.45;;;0.60;87.20;;;;;;4995522;28;20022;-75
2023/12/02 02:25:59;;;;;;;22.50;15.05;;;0.70;87.30;;;;;;4995035;28;20040;-75
2023/12/02 02:28:26;;;;;;;22.33;14.02;;;0.70;86.90;;;;;;4995409;28;20521;-75
2023/12/02 02:30:53;;;;;;;22.48;14.05;;;0.70;86.50;;;;;;4995557;28;20151;-75
2023/12/02 02:33:19;;;;;;;22.40;15.02;;;0.80;86.50;;;;;;4995343;28;20023;-76
2023/12/02 02:35:44;;;;;;;22.75;15.25;;;0.70;85.90;;;;;;4995436;28;20038;-76
2023/12/02 02:38:10;;;;;;;21.50;14.82;;;0.80;86.00;;;;;;4995351;28;20034;-76
2023/12/02 02:40:36;;;;;;;22.42;14.82;;;0.80;86.20;;;;;;4977948;28;20073;-76
2023/12/02 02:43:02;;;;;;;22.13;13.63;;;1.00;86.00;;;;;;4992865;28;20026;-76
2023/12/02 02:45:27;;;;;;;23.33;13.88;;;1.00;85.40;;;;;;4994170;28;20497;-74
2023/12/02 02:47:53;;;;;;;21.42;14.25;;;1.00;85.20;;;;;;4981813;28;20038;-75
2023/12/02 02:50:19;;;;;;;22.75;15.82;;;1.00;85.10;;;;;;4974728;28;20381;-75
2023/12/02 02:52:45;;;;;;;25.15;14.75;;;1.00;84.80;;;;;;4958071;28;20022;-75
2023/12/02 02:55:11;;;;;;;24.67;14.85;;;0.90;84.30;;;;;;4973490;28;20022;-75
2023/12/02 02:57:36;;;;;;;22.35;15.25;;;0.90;84.50;;;;;;4957916;28;20110;-75
2023/12/02 03:00:09;;;;;;;25.77;15.52;;;0.90;84.70;;;;;;4974860;28;20030;-75
2023/12/02 03:02:36;;;;;;;25.30;15.88;;;0.80;84.40;;;;;;4975342;28;20019;-75
2023/12/02 03:05:02;;;;;;;28.52;16.17;;;0.70;84.80;;;;;;4975091;28;20058;-77
2023/12/02 03:07:27;;;;;;;29.95;18.23;;;0.60;85.20;;;;;;4975060;28;20424;-77
2023/12/02 03:09:53;;;;;;;29.35;17.83;;;0.50;85.60;;;;;;4973438;28;20026;-76
2023/12/02 03:12:18;;;;;;;31.95;18.58;;;0.40;85.80;;;;;;4975058;28;20387;-76
2023/12/02 03:14:44;;;;;;;35.90;20.50;;;0.30;86.40;;;;;;4975093;28;20037;-75
2023/12/02 03:17:09;;;;;;;31.73;19.42;;;0.20;86.90;;;;;;4957494;28;20070;-75
2023/12/02 03:19:35;;;;;;;35.70;20.30;;;0.20;87.30;;;;;;4974774;28;20023;-76
2023/12/02 03:22:02;;;;;;;35.90;20.00;;;0.20;87.30;;;;;;4974868;28;20507;-75
2023/12/02 03:24:28;;;;;;;35.60;21.08;;;0.20;87.70;;;;;;4974708;28;20030;-73
2023/12/02 03:26:54;;;;;;;36.60;21.48;;;0.10;87.80;;;;;;4957314;28;20035;-74
2023/12/02 03:29:19;;;;;;;39.83;21.02;;;0.10;88.10;;;;;;4974551;28;20034;-74
2023/12/02 03:31:45;;;;;;;36.33;19.40;;;0.10;88.10;;;;;;4957160;28;20045;-74
2023/12/02 03:34:10;;;;;;;35.35;18.20;;;-0.10;88.10;;;;;;4974476;28;20506;-74
2023/12/02 03:36:36;;;;;;;36.53;20.23;;;-0.10;88.70;;;;;;4974437;28;20038;-75
2023/12/02 03:39:01;;;;;;;34.55;18.35;;;-0.20;88.70;;;;;;4957258;28;20102;-74
2023/12/02 03:41:27;;;;;;;37.53;20.33;;;-0.20;88.90;;;;;;4974620;28;20035;-75
2023/12/02 03:43:53;;;;;;;36.45;20.13;;;-0.30;89.10;;;;;;4974250;28;20033;-74
2023/12/02 03:46:19;;;;;;;36.85;20.63;;;-0.40;89.20;;;;;;4974256;28;20047;-74
2023/12/02 03:48:44;;;;;;;34.03;19.35;;;-0.40;89.60;;;;;;4956770;28;20027;-74
2023/12/02 03:51:10;;;;;;;37.55;20.17;;;-0.40;89.60;;;;;;4974425;28;20042;-75
2023/12/02 03:53:36;;;;;;;32.67;17.05;;;-0.40;89.60;;;;;;4974252;28;20031;-75
2023/12/02 03:56:02;;;;;;;28.20;16.13;;;-0.40;89.20;;;;;;4974239;28;20382;-74
2023/12/02 03:58:28;;;;;;;30.17;17.50;;;-0.30;89.20;;;;;;4974349;28;20057;-74
2023/12/02 04:00:55;;;;;;;27.45;16.98;;;-0.30;88.90;;;;;;4974239;28;20101;-75
2023/12/02 04:03:21;;;;;;;25.25;16.33;;;-0.30;88.40;;;;;;4974307;28;20023;-75
2023/12/02 04:05:46;;;;;;;27.38;15.88;;;-0.40;88.10;;;;;;4974030;28;20395;-75
2023/12/02 04:08:12;;;;;;;23.67;14.98;;;-0.30;88.40;;;;;;4974131;28;20054;-74
2023/12/02 04:10:37;;;;;;;24.02;15.38;;;-0.20;88.20;;;;;;4956841;28;20073;-74
2023/12/02 04:13:05;;;;;;;25.13;15.23;;;-0.20;87.50;;;;;;4956606;28;20430;-74
2023/12/02 04:15:31;;;;;;;24.30;14.02;;;-0.10;87.60;;;;;;4973843;28;20126;-75
2023/12/02 04:17:56;;;;;;;25.00;14.70;;;-0.10;87.00;;;;;;4974185;28;20082;-76
2023/12/02 04:20:22;;;;;;;25.90;15.63;;;-0.10;86.70;;;;;;4973878;28;20033;-75
2023/12/02 04:22:47;;;;;;;25.58;14.65;;;-0.10;86.50;;;;;;4974046;28;20027;-75
2023/12/02 04:25:13;;;;;;;26.70;15.05;;;-0.20;86.50;;;;;;4974103;28;20069;-75
2023/12/02 04:27:39;;;;;;;25.95;15.00;;;-0.20;86.60;;;;;;4974363;28;20034;-74
2023/12/02 04:30:06;;;;;;;26.98;16.00;;;-0.20;86.80;;;;;;4974268;28;20055;-75
2023/12/02 04:32:32;;;;;;;26.70;15.77;;;-0.30;86.70;;;;;;4956616;28;20507;-75
2023/12/02 04:34:57;;;;;;;26.05;15.60;;;-0.30;86.50;;;;;;4956578;28;20050;-75
2023/12/02 04:37:23;;;;;;;26.48;15.02;;;-0.30;86.60;;;;;;4956542;28;20034;-75
2023/12/02 04:39:48;;;;;;;26.92;15.80;;;-0.40;86.50;;;;;;4956578;28;20019;-75
2023/12/02 04:42:14;;;;;;;28.25;17.38;;;-0.40;86.80;;;;;;4956082;28;20023;-75
2023/12/02 04:44:39;;;;;;;26.40;15.90;;;-0.30;87.20;;;;;;4956425;28;20034;-75
2023/12/02 04:47:05;;;;;;;29.30;16.90;;;-0.40;87.00;;;;;;4972963;28;20054;-75
2023/12/02 04:49:31;;;;;;;28.83;15.60;;;-0.30;86.90;;;;;;4973457;28;20510;-74
2023/12/02 04:51:56;;;;;;;28.75;16.30;;;-0.30;86.70;;;;;;4962791;28;20073;-74
2023/12/02 04:54:22;;;;;;;27.23;16.30;;;-0.20;86.60;;;;;;4959140;28;20038;-75
2023/12/02 04:56:47;;;;;;;24.13;14.55;;;-0.20;86.40;;;;;;4956702;28;20031;-75
2023/12/02 04:59:13;;;;;;;24.45;13.18;;;-0.10;86.10;;;;;;4955960;28;20027;-74
2023/12/02 05:01:38;;;;;;;23.10;14.40;;;-0.10;85.70;;;;;;4955578;28;20029;-74
2023/12/02 05:04:05;;;;;;;22.15;13.80;;;-0.30;85.70;;;;;;4955996;28;20041;-77
2023/12/02 05:06:31;;;;;;;23.80;15.25;;;-0.20;85.90;;;;;;4957532;28;20463;-75
2023/12/02 05:08:57;;;;;;;26.42;16.23;;;-0.30;85.50;;;;;;4977144;28;20519;-76
2023/12/02 05:11:23;;;;;;;22.05;14.85;;;-0.20;85.80;;;;;;4959879;28;20031;-74
2023/12/02 05:13:50;;;;;;;24.83;15.07;;;-0.20;85.70;;;;;;4977200;28;20043;-75
2023/12/02 05:16:16;;;;;;;22.77;14.55;;;-0.30;85.80;;;;;;4958636;28;20122;-74
2023/12/02 05:18:42;;;;;;;19.88;12.63;;;-0.20;85.80;;;;;;4958790;28;20110;-75
2023/12/02 05:21:11;;;;;;;20.75;12.55;;;-0.20;86.80;;;;;;4959455;28;20027;-75
2023/12/02 05:23:38;;;;;;;21.83;12.45;;;-0.20;85.90;;;;;;4959481;28;20050;-75
2023/12/02 05:26:04;;;;;;;21.95;13.50;;;-0.20;85.60;;;;;;4959996;28;20034;-75
2023/12/02 05:28:30;;;;;;;22.55;12.30;;;-0.40;85.50;;;;;;4959858;28;20027;-75
2023/12/02 05:30:56;;;;;;;18.90;10.55;;;-0.40;86.30;;;;;;4977108;28;20026;-74
2023/12/02 05:33:22;;;;;;;17.33;9.93;;;-0.40;86.20;;;;;;4959711;28;20023;-77
2023/12/02 05:35:50;;;;;;;18.52;10.07;;;-0.50;86.40;;;;;;4960009;28;20038;-75
2023/12/02 05:38:16;;;;;;;17.27;10.38;;;-0.60;86.50;;;;;;4960059;28;20038;-74
2023/12/02 05:40:43;;;;;;;19.02;11.05;;;-0.60;86.70;;;;;;4959186;28;20027;-74
2023/12/02 05:43:08;;;;;;;18.38;11.18;;;-0.60;87.00;;;;;;4975689;28;20388;-74
2023/12/02 05:45:34;;;;;;;15.82;9.60;;;-0.60;88.00;;;;;;4959600;28;20031;-74
2023/12/02 05:48:00;;;;;;;16.20;9.88;;;-0.60;87.10;;;;;;4958543;28;20050;-76
2023/12/02 05:50:26;;;;;;;18.38;9.43;;;-0.60;87.30;;;;;;4976357;28;20030;-76
2023/12/02 05:52:52;;;;;;;14.85;9.02;;;-0.60;87.20;;;;;;4976765;28;20098;-76
2023/12/02 05:55:17;;;;;;;15.98;9.50;;;-0.60;87.30;;;;;;4959427;28;20110;-75
2023/12/02 05:57:46;;;;;;;16.50;9.18;;;-0.60;87.50;;;;;;4959707;28;20085;-75
2023/12/02 06:00:16;;;;;;;16.45;9.02;;;-0.60;87.10;;;;;;4958934;28;20110;-75
2023/12/02 06:02:42;;;;;;;15.55;9.85;;;-0.60;87.10;;;;;;4959417;28;20027;-75
2023/12/02 06:05:07;;;;;;;16.13;9.60;;;-0.70;87.20;;;;;;4959314;28;20031;-75
2023/12/02 06:07:33;;;;;;;13.73;9.00;;;-0.70;87.20;;;;;;4959108;28;20027;-75
2023/12/02 06:09:59;;;;;;;14.23;9.45;;;-0.70;87.40;;;;;;4958872;28;20023;-75
2023/12/02 06:12:24;;;;;;;13.68;9.35;;;-0.70;87.80;;;;;;4958964;28;20526;-75
2023/12/02 06:14:51;;;;;;;12.60;8.00;;;-0.80;87.70;;;;;;4958150;28;20046;-76
2023/12/02 06:17:16;;;;;;;13.45;7.90;;;-0.80;87.50;;;;;;4994572;28;20105;-76
2023/12/02 06:19:42;;;;;;;13.38;7.20;;;-0.90;87.70;;;;;;4976948;28;20026;-75
2023/12/02 06:22:07;;;;;;;9.98;6.60;;;-0.90;87.70;;;;;;4977424;28;20045;-77
2023/12/02 06:24:33;;;;;;;11.77;7.95;;;-0.80;87.80;;;;;;4978150;28;20049;-76
2023/12/02 06:26:59;;;;;;;11.02;6.88;;;-0.90;87.60;;;;;;4978450;28;20405;-75
2023/12/02 06:29:24;;;;;;;14.07;8.00;;;-1.00;87.70;;;;;;5000041;28;20427;-77
2023/12/02 06:31:50;;;;;;;13.00;7.70;;;-1.00;87.90;;;;;;4977992;28;20019;-77
2023/12/02 06:34:17;;;;;;;12.60;8.25;;;-0.90;88.10;;;;;;4977479;28;20027;-77
2023/12/02 06:36:43;;;;;;;13.60;8.38;;;-0.90;88.20;;;;;;4977996;28;20390;-77
2023/12/02 06:39:09;;;;;;;13.00;8.82;;;-0.90;88.10;;;;;;4978097;28;20025;-75
2023/12/02 06:41:35;;;;;;;12.70;8.52;;;-1.00;88.30;;;;;;4977667;28;20031;-76
2023/12/02 06:44:01;;;;;;;15.32;10.43;;;-0.90;88.50;;;;;;4977807;28;20049;-77
2023/12/02 06:46:26;;;;;;;11.20;7.63;;;-0.80;88.70;;;;;;4977820;28;20034;-76
2023/12/02 06:48:52;;;;;;;13.10;7.75;;;-0.80;88.40;;;;;;4977712;28;20027;-76
2023/12/02 06:51:17;;;;;;;11.18;7.13;;;-0.80;88.00;;;;;;4977808;28;20030;-75
2023/12/02 06:53:43;;;;;;;12.77;7.20;;;-0.80;87.70;;;;;;4976646;28;20033;-75
2023/12/02 06:56:21;;;;;;;15.50;7.82;;;-0.80;87.60;;;;;;4976356;28;20026;-74
2023/12/02 06:58:47;;;;;;;14.65;8.38;;;-0.90;87.90;;;;;;4976565;28;20540;-74
2023/12/02 07:01:24;;;;;;;13.63;8.30;;;-0.90;88.20;;;;;;4994403;28;20021;-76
2023/12/02 07:03:49;;;;;;;13.60;8.90;;;-0.80;88.00;;;;;;4977340;28;20041;-75
2023/12/02 07:06:15;;;;;;;12.65;7.57;;;-0.90;87.80;;;;;;4977186;28;20038;-75
2023/12/02 07:08:41;;;;;;;15.43;8.52;;;-0.80;87.90;;;;;;4977341;28;20057;-75
2023/12/02 07:11:07;;;;;;;14.38;9.48;;;-0.70;87.70;;;;;;4977327;28;20070;-75
2023/12/02 07:13:32;;;;;;;14.75;9.52;;;-0.70;87.70;;;;;;4994478;28;20046;-74
2023/12/02 07:15:58;;;;;;;15.52;10.13;;;-0.60;87.80;;;;;;4976924;28;20117;-75
2023/12/02 07:18:23;;;;;;;16.52;10.15;;;-0.50;87.50;;;;;;4976867;28;20516;-75
2023/12/02 07:20:49;;;;;;;12.85;9.15;;;-0.50;87.30;;;;;;4976028;28;20073;-74
2023/12/02 07:23:14;;;;;;;14.02;9.15;;;-0.50;87.20;;;;;;4976985;28;20026;-74
2023/12/02 07:25:40;;;;;;;13.00;8.77;;;-0.50;87.00;;;;;;4977115;28;20138;-73
2023/12/02 07:28:05;;;;;;;13.70;8.27;;;-0.50;86.70;;;;;;4994273;28;20419;-75
2023/12/02 07:30:31;;;;;;;16.10;9.30;;;-0.70;86.80;;;;;;4976450;28;20026;-75
2023/12/02 07:32:57;;;;;;;15.02;8.60;;;-0.70;87.30;;;;;;4976667;28;20019;-74
2023/12/02 07:35:22;;;;;;;15.52;8.13;;;-0.70;87.50;;;;;;4992256;28;20475;-73
2023/12/02 07:37:49;;;;;;;14.95;9.23;;;-0.70;87.70;;;;;;4993056;28;20128;-76
2023/12/02 07:40:14;;;;;;;13.45;9.20;;;-0.80;87.90;;;;;;4977018;28;20023;-76
2023/12/02 07:42:40;;;;;;;13.50;8.98;;;-0.70;88.10;;;;;;4976832;28;20027;-75
2023/12/02 07:45:06;;;;;;;13.25;8.98;;;-0.60;88.00;;;;;;4976533;28;20386;-75
2023/12/02 07:47:32;;;;;;;13.88;7.90;;;-0.60;87.80;;;;;;4993900;28;20165;-75
2023/12/02 07:49:57;;;;;;;13.82;9.27;;;-0.50;87.60;;;;;;4978872;28;20304;-76
2023/12/02 07:52:23;;;;;;;10.93;8.00;;;-0.60;86.40;;;;;;4994198;28;20096;-76
2023/12/02 07:54:48;;;;;;;13.90;9.63;;;-0.60;86.20;;;;;;4976065;28;20022;-75
2023/12/02 07:57:14;;;;;;;14.10;8.90;;;-0.70;86.90;;;;;;4976318;28;20529;-77
2023/12/02 07:59:39;;;;;;;11.85;7.63;;;-0.70;86.80;;;;;;4993581;28;20101;-75
2023/12/02 08:02:05;;;;;;;13.95;7.45;;;-0.60;86.60;;;;;;4993490;28;20118;-77
2023/12/02 08:04:31;;;;;;;13.02;8.23;;;-0.50;86.50;;;;;;4975939;28;20036;-75
2023/12/02 08:06:56;;;;;;;11.40;7.43;;;-0.50;85.70;;;;;;4976332;28;20034;-76
2023/12/02 08:09:22;;;;;;;9.70;7.13;;;-0.60;85.50;;;;;;4993687;28;20422;-76
2023/12/02 08:11:49;;;;;;;11.25;8.35;;;-0.60;85.30;;;;;;4993752;28;20037;-75
2023/12/02 08:14:15;;;;;;;27.30;10.10;;;-0.60;85.50;;;;;;4975811;28;20065;-75
2023/12/02 08:16:41;;;;;;;25.75;13.98;;;-0.50;88.00;;;;;;4976109;28;20019;-75
2023/12/02 08:19:07;;;;;;;18.80;11.25;;;0.70;96.00;;;;;;4975842;28;20026;-75
2023/12/02 08:21:32;;;;;;;14.95;9.90;;;1.30;96.50;;;;;;4976299;28;20072;-77
2023/12/02 08:23:58;;;;;;;11.60;7.32;;;1.90;92.50;;;;;;4976315;28;20026;-76
2023/12/02 08:26:24;;;;;;;10.85;7.93;;;2.20;84.20;;;;;;4975899;28;20073;-75
2023/12/02 08:28:50;;;;;;;9.35;7.45;;;2.60;80.90;;;;;;4975333;28;20121;-75
2023/12/02 08:31:16;;;;;;;8.75;6.70;;;2.90;76.50;;;;;;4976086;28;20173;-76
2023/12/02 08:33:41;;;;;;;9.07;7.30;;;3.20;74.80;;;;;;4976076;28;20463;-75
2023/12/02 08:36:08;;;;;;;10.02;6.65;;;3.50;72.30;;;;;;4976130;28;20030;-74
2023/12/02 08:38:33;;;;;;;9.05;7.32;;;3.60;69.00;;;;;;4975148;28;20081;-78
2023/12/02 08:41:02;;;;;;;8.35;6.57;;;3.50;67.80;;;;;;4977413;28;20062;-81
2023/12/02 08:47:08;;;;;;;9.35;7.38;;;3.50;68.00;;;;;;5228647;23;20499;-76
2023/12/02 08:49:34;;;;;;;9.65;7.30;;;3.60;65.90;;;;;;4995063;28;20054;-76
2023/12/02 08:51:59;;;;;;;8.70;7.05;;;3.70;66.80;;;;;;4997983;28;20459;-80
2023/12/02 08:54:25;;;;;;;10.45;8.13;;;3.80;65.90;;;;;;4996866;28;20023;-76
2023/12/02 08:56:50;;;;;;;9.95;8.95;;;3.80;64.70;;;;;;4996842;28;20030;-75
2023/12/02 08:59:16;;;;;;;11.98;8.05;;;3.20;63.50;;;;;;4997097;28;20526;-74
2023/12/02 09:01:42;;;;;;;12.20;9.25;;;2.60;65.00;;;;;;4997368;28;20022;-76
2023/12/02 09:04:07;;;;;;;13.70;9.40;;;2.10;67.50;;;;;;4998544;28;20023;-75
2023/12/02 09:06:33;;;;;;;11.60;8.75;;;1.70;69.40;;;;;;4996818;28;20041;-76
2023/12/02 09:08:59;;;;;;;14.00;9.52;;;1.10;71.30;;;;;;4995417;28;20026;-76
2023/12/02 09:11:24;;;;;;;17.00;9.35;;;1.00;72.60;;;;;;4996740;28;20415;-76
2023/12/02 09:13:50;;;;;;;13.93;9.52;;;0.90;74.00;;;;;;4996648;28;20062;-75
2023/12/02 09:16:30;;;;;;;13.93;9.45;;;0.80;74.50;;;;;;4996370;28;20031;-75
2023/12/02 09:18:56;;;;;;;13.38;9.77;;;0.70;75.20;;;;;;4995076;28;20033;-75
2023/12/02 09:21:21;;;;;;;14.80;9.50;;;0.70;75.30;;;;;;4996052;28;20392;-75
2023/12/02 09:23:51;;;;;;;14.88;8.95;;;0.50;75.60;;;;;;4996839;28;20034;-74
2023/12/02 09:26:33;;;;;;;13.25;9.70;;;0.50;76.30;;;;;;4996692;28;20081;-74
2023/12/02 09:28:58;;;;;;;15.02;10.00;;;0.40;76.70;;;;;;4998901;28;20022;-75
2023/12/02 09:31:26;;;;;;;16.10;9.77;;;0.40;77.00;;;;;;4994813;28;20034;-75
2023/12/02 09:33:58;;;;;;;15.63;9.35;;;0.40;77.80;;;;;;4995056;28;20102;-75
2023/12/02 09:36:33;;;;;;;13.73;8.85;;;0.30;77.70;;;;;;4993105;28;20022;-74
2023/12/02 09:39:14;;;;;;;14.60;9.45;;;0.30;77.60;;;;;;4994963;28;20117;-74
2023/12/02 09:41:55;;;;;;;13.93;8.55;;;0.30;77.60;;;;;;4996001;28;20039;-75
2023/12/02 09:44:32;;;;;;;17.48;10.02;;;0.30;77.70;;;;;;4994440;28;20113;-75
2023/12/02 09:47:02;;;;;;;16.98;10.18;;;0.30;77.90;;;;;;4994599;28;20112;-76
2023/12/02 09:49:53;;;;;;;18.15;10.00;;;0.30;78.40;;;;;;5010540;28;20490;-75
2023/12/02 09:52:28;;;;;;;13.23;8.93;;;0.30;78.60;;;;;;5009836;28;20030;-75
2023/12/02 09:55:07;;;;;;;13.02;8.48;;;0.20;78.20;;;;;;4995113;28;20038;-75
2023/12/02 09:58:10;;;;;;;11.68;6.97;;;0.10;78.40;;;;;;4996271;28;20030;-75
2023/12/02 10:01:07;;;;;;;9.18;6.68;;;-0.20;78.60;;;;;;4996240;28;20029;-76
2023/12/02 10:03:40;;;;;;;10.80;6.78;;;-0.50;79.60;;;;;;4994221;28;20125;-75
2023/12/02 10:06:15;;;;;;;10.20;6.53;;;-0.60;80.10;;;;;;4995239;28;20018;-75
2023/12/02 10:09:00;;;;;;;13.23;7.38;;;-0.70;81.00;;;;;;4994592;28;20435;-76
2023/12/02 10:11:41;;;;;;;10.95;6.53;;;-0.70;81.30;;;;;;4994029;28;20026;-76
2023/12/02 10:14:11;;;;;;;14.93;8.35;;;-0.90;81.50;;;;;;4994493;28;20030;-76
2023/12/02 10:16:39;;;;;;;14.10;8.40;;;-0.90;82.00;;;;;;4995421;28;20042;-76
2023/12/02 10:19:12;;;;;;;12.45;7.85;;;-0.90;82.30;;;;;;4994409;28;20030;-76
2023/12/02 10:21:42;;;;;;;16.77;8.13;;;-0.90;82.00;;;;;;4997454;28;20026;-76
2023/12/02 10:24:14;;;;;;;13.43;8.27;;;-0.90;82.20;;;;;;4994338;28;20037;-76
2023/12/02 10:27:06;;;;;;;14.38;9.30;;;-0.80;81.50;;;;;;4995478;28;20026;-75
2023/12/02 10:29:39;;;;;;;15.60;10.50;;;-0.70;81.10;;;;;;4995376;28;20032;-75
2023/12/02 10:32:18;;;;;;;16.58;9.88;;;-0.70;81.10;;;;;;4995241;28;20030;-75
2023/12/02 10:35:06;;;;;;;15.38;10.02;;;-0.70;81.40;;;;;;4993970;28;20426;-77
2023/12/02 10:37:41;;;;;;;17.70;9.55;;;-0.60;81.00;;;;;;4987146;28;20050;-76
2023/12/02 10:40:09;;;;;;;15.13;8.90;;;-0.50;80.90;;;;;;4995247;28;20085;-75
2023/12/02 10:42:59;;;;;;;13.90;9.05;;;-0.40;79.70;;;;;;4992255;28;20026;-75
2023/12/02 10:45:29;;;;;;;15.25;9.38;;;-0.20;79.80;;;;;;4984930;28;20571;-74
2023/12/02 10:47:57;;;;;;;15.15;10.23;;;0.00;79.10;;;;;;4994331;28;20050;-75
2023/12/02 10:50:23;;;;;;;14.38;9.93;;;0.10;77.80;;;;;;5009963;28;20030;-75
2023/12/02 10:53:03;;;;;;;14.85;9.30;;;0.20;77.60;;;;;;4993382;28;20057;-75
2023/12/02 10:55:31;;;;;;;17.30;10.95;;;0.00;77.80;;;;;;4994709;28;20049;-75
2023/12/02 10:57:58;;;;;;;17.40;11.45;;;0.00;77.90;;;;;;4993764;28;20026;-76
2023/12/02 11:00:27;;;;;;;14.27;10.32;;;0.10;77.70;;;;;;4994253;28;20030;-75
2023/12/02 11:03:18;;;;;;;14.77;10.88;;;0.10;77.20;;;;;;4993463;28;20100;-75
2023/12/02 11:05:44;;;;;;;15.68;10.80;;;0.00;77.40;;;;;;4992869;28;20049;-75
2023/12/02 11:08:21;;;;;;;14.55;9.80;;;-0.10;77.80;;;;;;4994056;28;20084;-75
2023/12/02 11:10:50;;;;;;;14.77;10.30;;;-0.20;78.40;;;;;;4993157;28;20026;-75
2023/12/02 11:13:20;;;;;;;15.50;10.57;;;-0.20;78.50;;;;;;4994393;28;20023;-75
2023/12/02 11:15:46;;;;;;;16.85;11.48;;;-0.10;78.50;;;;;;4994277;28;20031;-75
2023/12/02 11:18:20;;;;;;;16.27;10.88;;;-0.10;78.60;;;;;;4993832;28;20080;-75
2023/12/02 11:20:54;;;;;;;15.07;11.05;;;0.00;78.50;;;;;;4992928;28;20030;-75
2023/12/02 11:23:39;;;;;;;19.70;11.18;;;-0.20;77.60;;;;;;4993360;28;20026;-75
2023/12/02 11:26:23;;;;;;;17.92;11.00;;;-0.40;78.80;;;;;;4994438;28;20113;-76
2023/12/02 11:29:26;;;;;;;18.98;10.85;;;-0.40;79.20;;;;;;5008577;28;20506;-75
2023/12/02 11:32:00;;;;;;;17.35;11.07;;;-0.30;79.20;;;;;;4993781;28;20061;-74
2023/12/02 11:34:53;;;;;;;17.08;11.05;;;-0.30;79.20;;;;;;5008784;28;20120;-76
2023/12/02 11:37:25;;;;;;;15.48;9.20;;;-0.30;79.80;;;;;;4992647;28;20042;-75
2023/12/02 11:40:22;;;;;;;14.75;9.50;;;-0.40;79.40;;;;;;4994628;28;20095;-75
2023/12/02 11:43:25;;;;;;;17.85;11.30;;;-0.40;79.20;;;;;;5012810;28;20538;-75
2023/12/02 11:45:56;;;;;;;19.60;10.80;;;-0.40;79.80;;;;;;5013381;28;20025;-76
2023/12/02 11:48:44;;;;;;;18.00;10.55;;;-0.30;79.60;;;;;;5012162;28;20057;-78
2023/12/02 11:51:48;;;;;;;20.88;13.23;;;-0.40;79.00;;;;;;5011221;28;20040;-75
2023/12/02 11:54:22;;;;;;;21.65;13.38;;;-0.40;79.10;;;;;;5000009;28;20029;-77
2023/12/02 11:57:10;;;;;;;23.70;13.53;;;-0.40;79.40;;;;;;5001920;28;20034;-75
2023/12/02 11:59:57;;;;;;;21.35;13.80;;;-0.60;79.60;;;;;;4998382;28;20788;-74
2023/12/02 12:02:43;;;;;;;20.40;13.68;;;-0.70;80.20;;;;;;5002456;28;20117;-74
2023/12/02 12:05:34;;;;;;;25.77;15.55;;;-0.80;80.60;;;;;;4998570;28;20026;-76
2023/12/02 12:08:18;;;;;;;24.02;15.05;;;-0.80;81.90;;;;;;5001314;28;20068;-75
2023/12/02 12:10:46;;;;;;;23.70;13.30;;;-0.80;81.90;;;;;;5001811;28;20025;-75
2023/12/02 12:13:18;;;;;;;23.67;14.48;;;-0.90;81.40;;;;;;5002275;28;20027;-75
2023/12/02 12:15:44;;;;;;;22.77;13.18;;;-0.90;81.50;;;;;;5000660;28;20038;-77
2023/12/02 12:18:10;;;;;;;22.45;13.02;;;-1.00;81.30;;;;;;5003822;28;20489;-76
2023/12/02 12:20:36;;;;;;;20.30;12.50;;;-0.90;81.20;;;;;;5001493;28;20372;-75
2023/12/02 12:23:02;;;;;;;19.45;11.25;;;-1.00;81.00;;;;;;5001951;28;20021;-75
2023/12/02 12:25:31;;;;;;;20.90;12.00;;;-1.00;81.00;;;;;;5004146;28;20076;-74
2023/12/02 12:28:02;;;;;;;19.08;12.15;;;-0.90;82.30;;;;;;5001784;28;20042;-75
2023/12/02 12:30:42;;;;;;;20.80;10.80;;;-0.80;81.20;;;;;;5000673;28;20022;-76
2023/12/02 12:33:11;;;;;;;21.45;12.82;;;-0.90;80.50;;;;;;5001504;28;20022;-76
2023/12/02 12:35:36;;;;;;;21.40;12.27;;;-0.90;80.70;;;;;;5002681;28;20034;-75
2023/12/02 12:38:02;;;;;;;23.35;13.73;;;-0.90;80.70;;;;;;5003660;28;20431;-75
2023/12/02 12:40:31;;;;;;;22.00;13.25;;;-1.00;81.30;;;;;;5001712;28;20122;-76
2023/12/02 12:42:57;;;;;;;22.15;13.18;;;-1.00;81.40;;;;;;5001491;28;20305;-75
2023/12/02 12:45:23;;;;;;;20.83;13.65;;;-0.90;81.70;;;;;;5002317;28;20113;-77